createdAt,value
2018-06-27T00:01:15.050Z,85.35
2018-06-27T00:03:44.872Z,85.63
2018-06-27T00:06:15.061Z,85.61
2018-06-27T00:08:44.647Z,85.67
2018-06-27T00:11:16.037Z,85.44
2018-06-27T00:13:45.561Z,85.21
2018-06-27T00:16:16.328Z,85.47
2018-06-27T00:18:46.641Z,85.53
2018-06-27T00:21:16.624Z,85.47
2018-06-27T00:23:46.416Z,86.07
2018-06-27T00:26:15.946Z,85.75
2018-06-27T00:28:45.855Z,85.75
2018-06-27T00:31:15.471Z,86.29
2018-06-27T00:33:47.736Z,86.15
2018-06-27T00:36:18.160Z,86.79
2018-06-27T00:38:47.867Z,86.77
2018-06-27T00:41:17.565Z,86.71
2018-06-27T00:43:47.161Z,86.85
2018-06-27T00:46:16.669Z,86.85
2018-06-27T00:48:48.231Z,86.85
2018-06-27T00:51:37.578Z,86.70
2018-06-27T00:54:08.437Z,86.87
2018-06-27T00:56:40.464Z,86.74
2018-06-27T00:59:10.598Z,86.58
2018-06-27T01:01:42.474Z,86.41
2018-06-27T01:04:14.867Z,86.61
2018-06-27T01:06:45.396Z,87.03
2018-06-27T01:09:15.737Z,86.52
2018-06-27T01:11:47.593Z,86.99
2018-06-27T01:14:17.660Z,86.66
2018-06-27T01:16:48.592Z,86.52
2018-06-27T01:19:18.365Z,86.53
2018-06-27T01:21:48.354Z,86.69
2018-06-27T01:24:18.238Z,86.77
2018-06-27T01:26:48.283Z,86.61
2018-06-27T01:29:19.397Z,86.29
2018-06-27T01:31:49.096Z,86.34
2018-06-27T01:34:18.750Z,86.43
2018-06-27T01:36:48.296Z,86.27
2018-06-27T01:39:17.834Z,86.31
2018-06-27T01:41:47.907Z,86.32
2018-06-27T01:44:18.375Z,86.38
2018-06-27T01:46:48.277Z,86.91
2018-06-27T01:49:18.059Z,87.27
2018-06-27T01:51:49.099Z,87.28
2018-06-27T01:54:18.592Z,86.96
2018-06-27T01:56:48.557Z,87.05
2018-06-27T01:59:18.520Z,86.84
2018-06-27T02:01:48.365Z,87.18
2018-06-27T02:04:19.263Z,87.03
2018-06-27T02:06:48.958Z,87.01
2018-06-27T02:09:18.681Z,86.98
2018-06-27T02:11:48.539Z,87.22
2018-06-27T02:14:18.320Z,87.20
2018-06-27T02:16:56.159Z,87.01
2018-06-27T02:19:25.753Z,87.28
2018-06-27T02:21:55.282Z,87.55
2018-06-27T02:24:25.475Z,87.78
2018-06-27T02:26:55.646Z,87.43
2018-06-27T02:29:25.231Z,87.63
2018-06-27T02:31:55.025Z,87.50
2018-06-27T02:34:24.874Z,87.39
2018-06-27T02:36:54.407Z,87.40
2018-06-27T02:39:24.262Z,87.51
2018-06-27T02:41:53.761Z,87.14
2018-06-27T02:44:23.445Z,87.42
2018-06-27T02:46:53.022Z,87.54
2018-06-27T02:49:27.694Z,87.60
2018-06-27T02:52:01.439Z,87.61
2018-06-27T02:54:31.048Z,87.38
2018-06-27T02:57:01.053Z,88.05
2018-06-27T02:59:30.532Z,88.35
2018-06-27T03:01:59.998Z,87.82
2018-06-27T03:04:29.605Z,88.07
2018-06-27T03:07:00.867Z,88.18
2018-06-27T03:09:30.484Z,87.86
2018-06-27T03:12:00.638Z,88.64
2018-06-27T03:14:30.322Z,88.37
2018-06-27T03:16:59.905Z,88.59
2018-06-27T03:19:29.600Z,88.19
2018-06-27T03:22:01.612Z,87.97
2018-06-27T03:24:31.263Z,88.40
2018-06-27T03:27:06.546Z,88.56
2018-06-27T03:29:37.838Z,88.56
2018-06-27T03:32:11.405Z,88.78
2018-06-27T03:34:46.025Z,88.65
2018-06-27T03:37:25.307Z,87.78
2018-06-27T03:40:01.252Z,87.96
2018-06-27T03:42:37.590Z,87.93
2018-06-27T03:45:07.493Z,88.25
2018-06-27T03:47:42.756Z,88.94
2018-06-27T03:50:13.125Z,88.56
2018-06-27T03:52:47.353Z,88.65
2018-06-27T03:55:17.013Z,88.50
2018-06-27T03:57:46.963Z,88.34
2018-06-27T04:00:17.617Z,87.85
2018-06-27T04:02:47.477Z,88.30
2018-06-27T04:05:18.049Z,88.37
2018-06-27T04:08:04.346Z,87.92
2018-06-27T04:10:34.268Z,87.44
2018-06-27T04:13:04.959Z,87.30
2018-06-27T04:15:37.156Z,87.71
2018-06-27T04:18:21.269Z,87.69
2018-06-27T04:20:51.854Z,87.99
2018-06-27T04:23:27.367Z,88.23
2018-06-27T04:25:57.953Z,88.24
2018-06-27T04:28:28.660Z,87.69
2018-06-27T04:39:44.279Z,88.20
2018-06-27T04:42:17.718Z,87.62
2018-06-27T04:57:40.411Z,87.02
2018-06-27T05:00:10.211Z,87.15
2018-06-27T05:02:40.128Z,86.57
2018-06-27T05:05:09.662Z,86.67
2018-06-27T05:07:39.293Z,86.01
2018-06-27T05:10:08.884Z,85.63
2018-06-27T05:12:38.573Z,84.15
2018-06-27T05:15:10.765Z,83.03
2018-06-27T05:20:35.308Z,83.70
2018-06-27T05:23:06.232Z,83.45
2018-06-27T05:25:36.751Z,83.19
2018-06-27T05:28:07.327Z,83.16
2018-06-27T05:30:37.927Z,83.39
2018-06-27T05:33:09.370Z,82.86
2018-06-27T05:35:40.053Z,82.95
2018-06-27T05:38:10.715Z,81.78
2018-06-27T05:40:41.466Z,80.83
2018-06-27T05:43:12.024Z,81.26
2018-06-27T05:45:42.936Z,80.80
2018-06-27T05:48:15.481Z,81.37
2018-06-27T05:50:48.216Z,81.26
2018-06-27T05:53:20.079Z,80.76
2018-06-27T05:55:55.732Z,79.78
2018-06-27T05:58:26.788Z,79.60
2018-06-27T06:00:58.508Z,80.58
2018-06-27T06:03:29.020Z,80.84
2018-06-27T06:05:59.612Z,80.60
2018-06-27T06:08:30.718Z,80.56
2018-06-27T06:11:01.247Z,80.04
2018-06-27T06:13:31.842Z,79.15
2018-06-27T06:16:02.329Z,79.12
2018-06-27T06:18:34.728Z,78.34
2018-06-27T06:21:05.566Z,77.89
2018-06-27T06:23:36.428Z,75.87
2018-06-27T06:26:07.403Z,75.92
2018-06-27T06:28:40.368Z,76.40
2018-06-27T06:31:10.841Z,75.39
2018-06-27T06:33:42.274Z,75.45
2018-06-27T06:36:12.704Z,75.17
2018-06-27T06:38:46.750Z,74.76
2018-06-27T06:41:17.388Z,74.37
2018-06-27T06:43:48.077Z,73.45
2018-06-27T06:46:18.561Z,73.62
2018-06-27T06:48:49.777Z,73.71
2018-06-27T06:51:20.307Z,72.10
2018-06-27T06:53:54.485Z,71.23
2018-06-27T06:56:25.013Z,71.18
2018-06-27T06:58:55.449Z,70.75
2018-06-27T07:01:26.230Z,70.36
2018-06-27T07:03:58.206Z,71.13
2018-06-27T07:06:42.548Z,68.56
2018-06-27T07:09:14.506Z,69.02
2018-06-27T07:11:45.875Z,69.02
2018-06-27T07:14:16.327Z,68.12
2018-06-27T07:16:48.766Z,66.28
2018-06-27T07:19:19.597Z,65.72
2018-06-27T07:21:50.796Z,66.07
2018-06-27T07:24:21.385Z,64.52
2018-06-27T07:26:51.960Z,63.86
2018-06-27T07:29:23.903Z,64.06
2018-06-27T07:31:54.988Z,63.46
2018-06-27T07:34:39.566Z,64.14
2018-06-27T07:37:10.382Z,64.28
2018-06-27T07:39:41.271Z,60.47
2018-06-27T07:42:12.272Z,61.05
2018-06-27T07:44:42.790Z,59.85
2018-06-27T07:47:13.506Z,58.14
2018-06-27T07:49:44.039Z,57.81
2018-06-27T07:52:15.683Z,56.78
2018-06-27T07:54:46.718Z,58.27
2018-06-27T07:57:24.200Z,57.04
2018-06-27T07:59:54.991Z,58.16
2018-06-27T08:02:26.263Z,57.11
2018-06-27T08:04:56.799Z,56.65
2018-06-27T08:07:27.976Z,55.25
2018-06-27T08:09:58.543Z,55.92
2018-06-27T08:12:29.966Z,57.19
2018-06-27T08:15:00.582Z,56.20
2018-06-27T08:17:31.546Z,53.18
2018-06-27T08:20:02.023Z,54.60
2018-06-27T08:22:39.480Z,52.67
2018-06-27T08:25:10.515Z,51.77
2018-06-27T08:27:41.054Z,52.65
2018-06-27T08:30:12.500Z,51.85
2018-06-27T08:32:48.141Z,50.26
2018-06-27T08:35:18.782Z,50.88
2018-06-27T08:37:49.361Z,51.36
2018-06-27T08:40:20.072Z,50.13
2018-06-27T08:42:51.045Z,50.88
2018-06-27T08:45:21.596Z,48.88
2018-06-27T08:47:52.825Z,47.77
2018-06-27T08:50:23.308Z,47.11
2018-06-27T08:52:54.154Z,44.23
2018-06-27T08:55:24.700Z,42.88
2018-06-27T08:57:56.646Z,42.69
2018-06-27T09:00:27.212Z,42.05
2018-06-27T09:02:57.773Z,38.83
2018-06-27T09:05:28.702Z,39.47
2018-06-27T09:07:59.305Z,39.51
2018-06-27T09:10:29.821Z,37.99
2018-06-27T09:13:00.543Z,37.26
2018-06-27T09:15:31.510Z,37.58
2018-06-27T09:18:02.485Z,37.98
2018-06-27T09:20:33.199Z,39.03
2018-06-27T09:23:05.083Z,36.05
2018-06-27T09:25:35.712Z,36.00
2018-06-27T09:28:06.364Z,34.03
2018-06-27T09:30:37.223Z,33.68
2018-06-27T09:33:07.944Z,33.71
2018-06-27T09:35:38.526Z,33.40
2018-06-27T09:38:09.049Z,34.33
2018-06-27T09:40:40.884Z,32.90
2018-06-27T09:43:11.535Z,33.94
2018-06-27T09:45:42.028Z,36.37
2018-06-27T09:48:12.525Z,37.56
2018-06-27T09:50:43.508Z,34.34
2018-06-27T09:53:14.061Z,32.89
2018-06-27T09:55:44.559Z,34.49
2018-06-27T09:58:15.778Z,32.44
2018-06-27T10:00:47.593Z,30.43
2018-06-27T10:03:18.126Z,29.50
2018-06-27T10:05:48.752Z,30.91
2018-06-27T10:08:19.256Z,34.12
2018-06-27T10:10:53.859Z,32.14
2018-06-27T10:13:25.306Z,30.48
2018-06-27T10:15:56.156Z,32.30
2018-06-27T10:18:26.886Z,35.60
2018-06-27T10:20:57.544Z,38.25
2018-06-27T10:23:28.226Z,40.22
2018-06-27T10:26:00.325Z,39.09
2018-06-27T10:28:35.083Z,36.51
2018-06-27T10:31:05.595Z,33.32
2018-06-27T10:33:36.188Z,34.38
2018-06-27T10:36:21.457Z,35.56
2018-06-27T10:38:52.480Z,38.83
2018-06-27T10:41:23.244Z,38.02
2018-06-27T10:43:53.740Z,37.99
2018-06-27T10:46:24.375Z,35.46
2018-06-27T10:48:55.263Z,32.44
2018-06-27T10:51:26.079Z,33.57
2018-06-27T10:53:56.803Z,37.79
2018-06-27T10:56:27.410Z,37.06
2018-06-27T10:58:58.978Z,34.27
2018-06-27T11:01:29.541Z,34.11
2018-06-27T11:04:00.271Z,33.56
2018-06-27T11:06:30.782Z,34.51
2018-06-27T11:09:02.471Z,34.93
2018-06-27T11:11:33.971Z,35.18
2018-06-27T11:14:05.199Z,34.33
2018-06-27T11:16:36.194Z,34.97
2018-06-27T11:19:08.149Z,34.52
2018-06-27T11:21:38.624Z,37.05
2018-06-27T11:24:09.794Z,36.71
2018-06-27T11:26:40.632Z,35.06
2018-06-27T11:29:15.276Z,34.54
2018-06-27T11:31:45.709Z,32.09
2018-06-27T11:34:16.240Z,33.52
2018-06-27T11:36:46.813Z,31.43
2018-06-27T11:39:17.418Z,28.93
2018-06-27T11:41:47.983Z,28.55
2018-06-27T11:44:20.034Z,27.07
2018-06-27T11:46:51.018Z,27.30
2018-06-27T11:49:21.582Z,30.77
2018-06-27T11:51:52.822Z,29.43
2018-06-27T11:54:23.425Z,27.33
2018-06-27T11:56:54.321Z,27.89
2018-06-27T11:59:25.190Z,30.68
2018-06-27T12:01:55.881Z,34.44
2018-06-27T12:04:26.483Z,33.22
2018-06-27T12:06:57.514Z,31.80
2018-06-27T12:09:28.938Z,35.29
2018-06-27T12:11:59.537Z,34.71
2018-06-27T12:14:30.101Z,30.89
2018-06-27T12:17:00.922Z,33.89
2018-06-27T12:19:32.913Z,31.52
2018-06-27T12:22:04.876Z,30.06
2018-06-27T12:24:35.509Z,28.43
2018-06-27T12:27:06.228Z,25.50
2018-06-27T12:29:37.396Z,23.50
2018-06-27T12:32:07.979Z,23.80
2018-06-27T12:34:38.749Z,21.51
2018-06-27T12:37:09.478Z,20.77
2018-06-27T12:39:40.419Z,22.77
2018-06-27T12:42:11.078Z,22.17
2018-06-27T12:44:41.748Z,21.87
2018-06-27T12:47:12.298Z,22.78
2018-06-27T12:49:45.286Z,23.53
2018-06-27T12:52:15.864Z,24.56
2018-06-27T12:54:46.578Z,22.53
2018-06-27T12:57:18.460Z,22.63
2018-06-27T12:59:49.362Z,22.19
2018-06-27T13:02:19.958Z,24.81
2018-06-27T13:04:50.632Z,27.12
2018-06-27T13:07:21.166Z,26.03
2018-06-27T13:09:51.719Z,23.92
2018-06-27T13:12:22.848Z,22.08
2018-06-27T13:14:53.836Z,19.67
2018-06-27T13:17:26.024Z,18.66
2018-06-27T13:19:58.015Z,17.02
2018-06-27T13:22:29.526Z,15.39
2018-06-27T13:25:00.626Z,14.44
2018-06-27T13:27:31.673Z,14.92
2018-06-27T13:30:03.754Z,15.74
2018-06-27T13:32:34.491Z,13.58
2018-06-27T13:35:06.499Z,13.48
2018-06-27T13:37:37.900Z,13.16
2018-06-27T13:40:08.495Z,14.07
2018-06-27T13:42:39.202Z,13.62
2018-06-27T13:45:10.338Z,12.73
2018-06-27T13:47:40.931Z,12.46
2018-06-27T13:50:11.513Z,13.23
2018-06-27T13:52:43.684Z,13.41
2018-06-27T13:55:14.251Z,13.02
2018-06-27T13:57:44.794Z,13.14
2018-06-27T14:00:15.417Z,13.05
2018-06-27T14:02:53.250Z,13.93
2018-06-27T14:05:23.743Z,13.65
2018-06-27T14:07:54.202Z,13.03
2018-06-27T14:12:47.627Z,12.16
2018-06-27T14:15:17.705Z,10.98
2018-06-27T14:17:52.084Z,14.87
2018-06-27T14:20:22.142Z,14.95
2018-06-27T14:22:52.154Z,14.16
2018-06-27T14:25:22.749Z,13.42
2018-06-27T14:27:53.025Z,12.84
2018-06-27T14:30:23.022Z,12.31
2018-06-27T14:32:54.511Z,14.78
2018-06-27T14:35:24.621Z,16.35
2018-06-27T14:37:54.765Z,17.17
2018-06-27T14:40:26.810Z,16.17
2018-06-27T14:42:56.879Z,16.23
2018-06-27T14:45:26.862Z,16.15
2018-06-27T14:47:57.276Z,13.23
2018-06-27T14:50:27.492Z,13.94
2018-06-27T14:52:57.575Z,15.50
2018-06-27T14:55:34.986Z,16.11
2018-06-27T14:58:05.316Z,14.03
2018-06-27T15:00:35.460Z,13.69
2018-06-27T15:03:05.641Z,16.01
2018-06-27T15:05:36.592Z,16.24
2018-06-27T15:08:06.984Z,17.50
2018-06-27T15:10:37.153Z,18.17
2018-06-27T15:13:08.579Z,16.75
2018-06-27T15:15:39.504Z,17.91
2018-06-27T15:18:09.550Z,20.47
2018-06-27T15:20:39.644Z,21.84
2018-06-27T15:23:12.814Z,21.47
2018-06-27T15:25:43.313Z,18.97
2018-06-27T15:28:14.142Z,18.49
2018-06-27T15:30:45.070Z,18.85
2018-06-27T15:33:15.084Z,20.01
2018-06-27T15:35:45.237Z,22.69
2018-06-27T15:38:16.170Z,23.65
2018-06-27T15:40:46.439Z,24.41
2018-06-27T15:43:16.238Z,25.24
2018-06-27T15:45:46.557Z,25.56
2018-06-27T15:48:16.523Z,24.32
2018-06-27T15:50:46.694Z,25.02
2018-06-27T15:53:17.193Z,24.79
2018-06-27T15:55:47.255Z,25.09
2018-06-27T15:58:17.407Z,24.33
2018-06-27T16:00:58.190Z,24.49
2018-06-27T16:03:28.368Z,24.66
2018-06-27T16:05:58.370Z,24.18
2018-06-27T16:08:30.042Z,24.86
2018-06-27T16:11:00.676Z,25.44
2018-06-27T16:13:30.636Z,25.52
2018-06-27T16:16:02.576Z,24.89
2018-06-27T16:18:32.736Z,25.35
2018-06-27T16:21:03.395Z,25.88
2018-06-27T16:23:34.774Z,26.50
2018-06-27T16:26:04.919Z,25.60
2018-06-27T16:28:35.024Z,25.63
2018-06-27T16:31:05.349Z,25.43
2018-06-27T16:33:35.766Z,25.95
2018-06-27T16:36:05.978Z,25.02
2018-06-27T16:38:37.522Z,25.17
2018-06-27T16:41:08.003Z,24.39
2018-06-27T16:43:41.804Z,25.31
2018-06-27T16:46:11.870Z,26.45
2018-06-27T16:48:43.097Z,25.61
2018-06-27T16:51:14.623Z,26.41
2018-06-27T16:53:45.214Z,25.04
2018-06-27T16:56:15.947Z,25.32
2018-06-27T16:58:46.397Z,25.17
2018-06-27T17:01:16.720Z,26.43
2018-06-27T17:03:46.866Z,27.05
2018-06-27T17:06:17.367Z,27.20
2018-06-27T17:08:47.556Z,27.10
2018-06-27T17:11:17.665Z,26.99
2018-06-27T17:13:48.383Z,27.37
2018-06-27T17:16:20.854Z,27.33
2018-06-27T17:18:50.934Z,27.23
2018-06-27T17:21:21.271Z,26.85
2018-06-27T17:23:51.636Z,27.10
2018-06-27T17:26:21.738Z,27.57
2018-06-27T17:28:52.174Z,27.65
2018-06-27T17:31:22.452Z,27.79
2018-06-27T17:33:52.759Z,28.23
2018-06-27T17:36:24.366Z,28.56
2018-06-27T17:38:55.373Z,28.30
2018-06-27T17:41:26.383Z,28.43
2018-06-27T17:43:56.924Z,28.92
2018-06-27T17:46:27.037Z,28.74
2018-06-27T17:48:57.252Z,29.03
2018-06-27T17:51:28.351Z,29.11
2018-06-27T17:53:59.075Z,28.94
2018-06-27T17:56:29.318Z,29.24
2018-06-27T17:58:59.912Z,29.20
2018-06-27T18:01:30.717Z,29.40
2018-06-27T18:04:00.729Z,29.74
2018-06-27T18:06:32.534Z,30.33
2018-06-27T18:09:02.703Z,30.83
2018-06-27T18:11:33.227Z,31.63
2018-06-27T18:14:04.792Z,32.09
2018-06-27T18:16:35.558Z,33.50
2018-06-27T18:19:06.195Z,33.83
2018-06-27T18:21:36.568Z,33.99
2018-06-27T18:24:06.796Z,34.81
2018-06-27T18:26:36.822Z,34.87
2018-06-27T18:29:07.467Z,35.16
2018-06-27T18:31:37.572Z,35.83
2018-06-27T18:34:08.218Z,36.40
2018-06-27T18:36:40.530Z,36.64
2018-06-27T18:39:11.831Z,36.71
2018-06-27T18:41:43.798Z,37.29
2018-06-27T18:44:22.206Z,36.00
2018-06-27T18:46:53.913Z,36.59
2018-06-27T18:49:33.239Z,36.52
2018-06-27T18:52:06.692Z,36.94
2018-06-27T18:54:42.163Z,36.24
2018-06-27T18:57:12.554Z,36.57
2018-06-27T18:59:42.681Z,36.73
2018-06-27T19:02:12.890Z,37.39
2018-06-27T19:04:43.020Z,37.04
2018-06-27T19:07:13.200Z,37.77
2018-06-27T19:09:43.999Z,38.33
2018-06-27T19:12:14.037Z,38.72
2018-06-27T19:14:45.551Z,39.02
2018-06-27T19:17:16.900Z,38.95
2018-06-27T19:19:47.151Z,39.29
2018-06-27T19:22:17.284Z,39.11
2018-06-27T19:24:47.758Z,40.08
2018-06-27T19:27:17.933Z,39.90
2018-06-27T19:29:48.099Z,40.35
2018-06-27T19:32:21.837Z,40.91
2018-06-27T19:34:51.896Z,40.63
2018-06-27T19:37:22.145Z,40.97
2018-06-27T19:39:52.773Z,40.47
2018-06-27T19:42:22.920Z,41.29
2018-06-27T19:44:53.694Z,40.77
2018-06-27T19:47:23.912Z,41.36
2018-06-27T19:49:55.164Z,41.75
2018-06-27T19:52:26.013Z,42.13
2018-06-27T19:54:56.236Z,42.00
2018-06-27T19:57:26.387Z,41.75
2018-06-27T19:59:57.961Z,42.38
2018-06-27T20:02:33.602Z,42.06
2018-06-27T20:05:04.217Z,41.23
2018-06-27T20:07:34.821Z,41.99
2018-06-27T20:10:05.516Z,42.91
2018-06-27T20:12:40.048Z,42.96
2018-06-27T20:15:11.325Z,43.05
2018-06-27T20:17:43.431Z,42.94
2018-06-27T20:20:26.824Z,42.45
2018-06-27T20:23:07.047Z,43.25
2018-06-27T20:25:41.654Z,42.57
2018-06-27T20:28:16.894Z,43.31
2018-06-27T20:30:54.682Z,42.99
2018-06-27T20:33:31.001Z,42.49
2018-06-27T20:36:08.993Z,43.04
2018-06-27T20:38:50.161Z,41.99
2018-06-27T20:41:36.125Z,42.10
2018-06-27T20:44:09.794Z,41.48
2018-06-27T20:46:50.367Z,41.30
2018-06-27T20:49:27.078Z,39.54
2018-06-27T20:52:05.790Z,39.97
2018-06-27T20:54:38.540Z,39.80
2018-06-27T20:57:14.088Z,39.37
2018-06-27T21:00:05.848Z,40.17
2018-06-27T21:02:48.769Z,39.93
2018-06-27T21:05:27.638Z,40.24
2018-06-27T21:08:07.539Z,40.25
2018-06-27T21:10:48.007Z,40.26
2018-06-27T21:13:28.039Z,40.62
2018-06-27T21:16:08.939Z,40.53
2018-06-27T21:18:52.944Z,41.07
2018-06-27T21:21:38.090Z,41.32
2018-06-27T21:24:12.495Z,41.42
2018-06-27T21:26:43.129Z,41.75
2018-06-27T21:29:13.770Z,42.38
2018-06-27T21:31:44.304Z,42.91
2018-06-27T21:34:15.030Z,43.14
2018-06-27T21:36:45.693Z,43.59
2018-06-27T21:39:17.340Z,43.93
2018-06-27T21:41:48.090Z,44.22
2018-06-27T21:44:18.044Z,44.38
2018-06-27T21:46:49.269Z,45.25
2018-06-27T21:49:19.464Z,45.91
2018-06-27T21:51:49.929Z,44.80
2018-06-27T21:54:26.651Z,45.64
2018-06-27T21:57:01.857Z,46.76
2018-06-27T21:59:35.642Z,46.88
2018-06-27T22:02:11.693Z,47.33
2018-06-27T22:04:43.895Z,48.48
2018-06-27T22:07:15.715Z,48.68
2018-06-27T22:09:46.367Z,48.45
2018-06-27T22:12:19.655Z,48.34
2018-06-27T22:14:49.751Z,49.25
2018-06-27T22:17:19.798Z,49.52
2018-06-27T22:19:50.800Z,50.46
2018-06-27T22:23:41.824Z,50.63
2018-06-27T22:26:12.035Z,51.94
2018-06-27T22:28:53.834Z,53.25
2018-06-27T22:31:32.759Z,51.84
2018-06-27T22:34:03.206Z,51.80
2018-06-27T22:36:35.819Z,51.58
2018-06-27T22:39:13.235Z,52.05
2018-06-27T22:41:49.533Z,51.83
2018-06-27T22:44:19.667Z,52.25
2018-06-27T22:46:50.187Z,52.51
2018-06-27T22:49:20.611Z,52.37
2018-06-27T22:51:50.905Z,52.46
2018-06-27T22:54:21.022Z,52.17
2018-06-27T22:56:53.323Z,52.76
2018-06-27T22:59:23.404Z,53.42
2018-06-27T23:01:53.486Z,54.41
2018-06-27T23:04:25.941Z,55.64
2018-06-27T23:06:56.212Z,54.57
2018-06-27T23:09:35.146Z,55.83
2018-06-27T23:12:12.074Z,55.67
2018-06-27T23:14:42.500Z,57.22
2018-06-27T23:17:12.633Z,57.34
2018-06-27T23:19:43.247Z,56.84
2018-06-27T23:22:49.797Z,56.28
2018-06-27T23:25:20.306Z,56.94
2018-06-27T23:28:57.294Z,58.06
2018-06-27T23:31:39.323Z,58.85
2018-06-27T23:34:09.588Z,58.03
2018-06-27T23:36:39.947Z,58.22
2018-06-27T23:39:13.026Z,57.84
2018-06-27T23:41:44.782Z,57.89
2018-06-27T23:44:14.897Z,57.73
2018-06-27T23:46:45.120Z,58.98
2018-06-27T23:49:15.254Z,58.83
2018-06-27T23:51:47.608Z,59.77
2018-06-27T23:54:17.854Z,61.11
2018-06-27T23:56:48.179Z,61.52
2018-06-27T23:59:19.104Z,61.89
